sensor_id;sensor_type;location;lat;lon;timestamp;temperature;humidity
60039;DHT22;45916;52.734;6.544;2023-04-24T00:00:09;10.00;99.90
60039;DHT22;45916;52.734;6.544;2023-04-24T00:02:35;9.90;99.90
60039;DHT22;45916;52.734;6.544;2023-04-24T00:05:07;9.90;99.90
60039;DHT22;45916;52.734;6.544;2023-04-24T00:07:34;10.00;99.90
60039;DHT22;45916;52.734;6.544;2023-04-24T00:10:00;9.90;99.90
60039;DHT22;45916;52.734;6.544;2023-04-24T00:12:26;10.00;99.90
60039;DHT22;45916;52.734;6.544;2023-04-24T00:14:52;10.00;99.90
60039;DHT22;45916;52.734;6.544;2023-04-24T00:17:18;10.00;99.90
60039;DHT22;45916;52.734;6.544;2023-04-24T00:19:46;10.00;99.90
60039;DHT22;45916;52.734;6.544;2023-04-24T00:22:12;10.00;99.90
60039;DHT22;45916;52.734;6.544;2023-04-24T00:24:39;10.00;99.90
60039;DHT22;45916;52.734;6.544;2023-04-24T00:27:05;10.00;99.90
60039;DHT22;45916;52.734;6.544;2023-04-24T00:29:30;10.00;99.90
60039;DHT22;45916;52.734;6.544;2023-04-24T00:31:56;10.10;99.90
60039;DHT22;45916;52.734;6.544;2023-04-24T00:34:22;10.00;99.90
60039;DHT22;45916;52.734;6.544;2023-04-24T00:36:48;10.00;99.90
60039;DHT22;45916;52.734;6.544;2023-04-24T00:39:21;10.10;99.90
60039;DHT22;45916;52.734;6.544;2023-04-24T00:41:47;10.20;99.90
60039;DHT22;45916;52.734;6.544;2023-04-24T00:44:14;10.20;99.90
60039;DHT22;45916;52.734;6.544;2023-04-24T00:46:40;10.10;99.90
60039;DHT22;45916;52.734;6.544;2023-04-24T00:49:06;10.10;99.90
60039;DHT22;45916;52.734;6.544;2023-04-24T00:51:32;10.10;99.90
60039;DHT22;45916;52.734;6.544;2023-04-24T00:53:58;10.20;99.90
60039;DHT22;45916;52.734;6.544;2023-04-24T00:56:25;10.20;99.90
60039;DHT22;45916;52.734;6.544;2023-04-24T00:58:50;10.20;99.90
60039;DHT22;45916;52.734;6.544;2023-04-24T01:01:18;10.30;99.90
60039;DHT22;45916;52.734;6.544;2023-04-24T01:03:46;10.20;99.90
60039;DHT22;45916;52.734;6.544;2023-04-24T01:06:12;10.20;99.90
60039;DHT22;45916;52.734;6.544;2023-04-24T01:08:38;10.20;99.90
60039;DHT22;45916;52.734;6.544;2023-04-24T01:11:05;10.30;99.90
60039;DHT22;45916;52.734;6.544;2023-04-24T01:13:32;10.30;99.90
60039;DHT22;45916;52.734;6.544;2023-04-24T01:15:58;10.20;99.90
60039;DHT22;45916;52.734;6.544;2023-04-24T01:18:24;10.20;99.90
60039;DHT22;45916;52.734;6.544;2023-04-24T01:20:51;10.10;99.90
60039;DHT22;45916;52.734;6.544;2023-04-24T01:23:19;10.20;99.90
60039;DHT22;45916;52.734;6.544;2023-04-24T01:25:45;10.10;99.90
60039;DHT22;45916;52.734;6.544;2023-04-24T01:28:11;10.10;99.90
60039;DHT22;45916;52.734;6.544;2023-04-24T01:30:38;10.10;99.90
60039;DHT22;45916;52.734;6.544;2023-04-24T01:33:03;10.10;99.90
60039;DHT22;45916;52.734;6.544;2023-04-24T01:35:29;10.00;99.90
60039;DHT22;45916;52.734;6.544;2023-04-24T01:37:55;10.00;99.90
60039;DHT22;45916;52.734;6.544;2023-04-24T01:40:21;10.10;99.90
60039;DHT22;45916;52.734;6.544;2023-04-24T01:42:47;10.00;99.90
60039;DHT22;45916;52.734;6.544;2023-04-24T01:45:12;9.90;99.90
60039;DHT22;45916;52.734;6.544;2023-04-24T01:47:40;9.90;99.90
60039;DHT22;45916;52.734;6.544;2023-04-24T01:50:06;10.00;99.90
60039;DHT22;45916;52.734;6.544;2023-04-24T01:52:32;9.90;99.90
60039;DHT22;45916;52.734;6.544;2023-04-24T01:55:03;9.90;99.90
60039;DHT22;45916;52.734;6.544;2023-04-24T01:57:30;9.90;99.90
60039;DHT22;45916;52.734;6.544;2023-04-24T01:59:56;9.90;99.90
60039;DHT22;45916;52.734;6.544;2023-04-24T02:02:22;9.80;99.90
60039;DHT22;45916;52.734;6.544;2023-04-24T02:04:50;9.80;99.90
60039;DHT22;45916;52.734;6.544;2023-04-24T02:07:16;9.80;99.90
60039;DHT22;45916;52.734;6.544;2023-04-24T02:09:42;9.80;99.90
60039;DHT22;45916;52.734;6.544;2023-04-24T02:12:07;9.80;99.90
60039;DHT22;45916;52.734;6.544;2023-04-24T02:14:33;9.80;99.90
60039;DHT22;45916;52.734;6.544;2023-04-24T02:16:59;9.80;99.90
60039;DHT22;45916;52.734;6.544;2023-04-24T02:19:26;9.80;99.90
60039;DHT22;45916;52.734;6.544;2023-04-24T02:21:52;9.80;99.90
60039;DHT22;45916;52.734;6.544;2023-04-24T02:24:18;9.70;99.90
60039;DHT22;45916;52.734;6.544;2023-04-24T02:26:44;9.70;99.90
60039;DHT22;45916;52.734;6.544;2023-04-24T02:29:10;9.70;99.90
60039;DHT22;45916;52.734;6.544;2023-04-24T02:31:36;9.70;99.90
60039;DHT22;45916;52.734;6.544;2023-04-24T02:34:01;9.70;99.90
60039;DHT22;45916;52.734;6.544;2023-04-24T02:36:27;9.70;99.90
60039;DHT22;45916;52.734;6.544;2023-04-24T02:38:53;9.70;99.90
60039;DHT22;45916;52.734;6.544;2023-04-24T02:41:18;9.70;99.90
60039;DHT22;45916;52.734;6.544;2023-04-24T02:43:45;9.70;99.90
60039;DHT22;45916;52.734;6.544;2023-04-24T02:46:10;9.70;99.90
60039;DHT22;45916;52.734;6.544;2023-04-24T02:48:36;9.80;99.90
60039;DHT22;45916;52.734;6.544;2023-04-24T02:51:02;9.70;99.90
60039;DHT22;45916;52.734;6.544;2023-04-24T02:53:28;9.70;99.90
60039;DHT22;45916;52.734;6.544;2023-04-24T02:55:55;9.70;99.90
60039;DHT22;45916;52.734;6.544;2023-04-24T02:58:20;9.70;99.90
60039;DHT22;45916;52.734;6.544;2023-04-24T03:00:46;9.70;99.90
60039;DHT22;45916;52.734;6.544;2023-04-24T03:03:12;9.70;99.90
60039;DHT22;45916;52.734;6.544;2023-04-24T03:05:38;9.60;99.90
60039;DHT22;45916;52.734;6.544;2023-04-24T03:08:04;9.60;99.90
60039;DHT22;45916;52.734;6.544;2023-04-24T03:10:30;9.60;99.90
60039;DHT22;45916;52.734;6.544;2023-04-24T03:12:56;9.60;99.90
60039;DHT22;45916;52.734;6.544;2023-04-24T03:15:21;9.60;99.90
60039;DHT22;45916;52.734;6.544;2023-04-24T03:17:47;9.70;99.90
60039;DHT22;45916;52.734;6.544;2023-04-24T03:20:13;9.70;99.90
60039;DHT22;45916;52.734;6.544;2023-04-24T03:22:39;9.60;99.90
60039;DHT22;45916;52.734;6.544;2023-04-24T03:25:05;9.60;99.90
60039;DHT22;45916;52.734;6.544;2023-04-24T03:27:31;9.60;99.90
60039;DHT22;45916;52.734;6.544;2023-04-24T03:29:56;9.70;99.90
60039;DHT22;45916;52.734;6.544;2023-04-24T03:32:23;9.60;99.90
60039;DHT22;45916;52.734;6.544;2023-04-24T03:34:49;9.60;99.90
60039;DHT22;45916;52.734;6.544;2023-04-24T03:37:16;9.70;99.90
60039;DHT22;45916;52.734;6.544;2023-04-24T03:39:42;9.80;99.90
60039;DHT22;45916;52.734;6.544;2023-04-24T03:42:08;9.70;99.90
60039;DHT22;45916;52.734;6.544;2023-04-24T03:44:34;9.70;99.90
60039;DHT22;45916;52.734;6.544;2023-04-24T03:47:00;9.80;99.90
60039;DHT22;45916;52.734;6.544;2023-04-24T03:49:26;9.80;99.90
60039;DHT22;45916;52.734;6.544;2023-04-24T03:51:51;9.80;99.90
60039;DHT22;45916;52.734;6.544;2023-04-24T03:54:18;9.80;99.90
60039;DHT22;45916;52.734;6.544;2023-04-24T03:56:45;9.70;99.90
60039;DHT22;45916;52.734;6.544;2023-04-24T03:59:10;9.70;99.90
60039;DHT22;45916;52.734;6.544;2023-04-24T04:01:36;9.70;99.90
60039;DHT22;45916;52.734;6.544;2023-04-24T04:04:03;9.70;99.90
60039;DHT22;45916;52.734;6.544;2023-04-24T04:06:29;9.70;99.90
60039;DHT22;45916;52.734;6.544;2023-04-24T04:08:56;9.70;99.90
60039;DHT22;45916;52.734;6.544;2023-04-24T04:11:23;9.70;99.90
60039;DHT22;45916;52.734;6.544;2023-04-24T04:13:48;9.70;99.90
60039;DHT22;45916;52.734;6.544;2023-04-24T04:16:14;9.80;99.90
60039;DHT22;45916;52.734;6.544;2023-04-24T04:18:45;9.70;99.90
60039;DHT22;45916;52.734;6.544;2023-04-24T04:21:11;9.70;99.90
60039;DHT22;45916;52.734;6.544;2023-04-24T04:23:36;9.70;99.90
60039;DHT22;45916;52.734;6.544;2023-04-24T04:26:03;9.70;99.90
60039;DHT22;45916;52.734;6.544;2023-04-24T04:28:29;9.70;99.90
60039;DHT22;45916;52.734;6.544;2023-04-24T04:30:57;9.60;99.90
60039;DHT22;45916;52.734;6.544;2023-04-24T04:33:24;9.60;99.90
60039;DHT22;45916;52.734;6.544;2023-04-24T04:35:50;9.70;99.90
60039;DHT22;45916;52.734;6.544;2023-04-24T04:38:19;9.60;99.90
60039;DHT22;45916;52.734;6.544;2023-04-24T04:40:45;9.60;99.90
60039;DHT22;45916;52.734;6.544;2023-04-24T04:43:11;9.60;99.90
60039;DHT22;45916;52.734;6.544;2023-04-24T04:45:38;9.50;99.90
60039;DHT22;45916;52.734;6.544;2023-04-24T04:48:05;9.50;99.90
60039;DHT22;45916;52.734;6.544;2023-04-24T04:50:34;9.50;99.90
60039;DHT22;45916;52.734;6.544;2023-04-24T04:53:00;9.50;99.90
60039;DHT22;45916;52.734;6.544;2023-04-24T04:55:26;9.50;99.90
60039;DHT22;45916;52.734;6.544;2023-04-24T04:57:52;9.50;99.90
60039;DHT22;45916;52.734;6.544;2023-04-24T05:00:18;9.50;99.90
60039;DHT22;45916;52.734;6.544;2023-04-24T05:02:44;9.40;99.90
60039;DHT22;45916;52.734;6.544;2023-04-24T05:05:10;9.50;99.90
60039;DHT22;45916;52.734;6.544;2023-04-24T05:07:36;9.50;99.90
60039;DHT22;45916;52.734;6.544;2023-04-24T05:10:02;9.60;99.90
60039;DHT22;45916;52.734;6.544;2023-04-24T05:12:28;9.60;99.90
60039;DHT22;45916;52.734;6.544;2023-04-24T05:14:53;9.60;99.90
60039;DHT22;45916;52.734;6.544;2023-04-24T05:17:19;9.60;99.90
60039;DHT22;45916;52.734;6.544;2023-04-24T05:19:45;9.60;99.90
60039;DHT22;45916;52.734;6.544;2023-04-24T05:22:11;9.70;99.90
60039;DHT22;45916;52.734;6.544;2023-04-24T05:24:37;9.60;99.90
60039;DHT22;45916;52.734;6.544;2023-04-24T05:27:04;9.70;99.90
60039;DHT22;45916;52.734;6.544;2023-04-24T05:29:32;9.70;99.90
60039;DHT22;45916;52.734;6.544;2023-04-24T05:31:59;9.60;99.90
60039;DHT22;45916;52.734;6.544;2023-04-24T05:34:25;9.60;99.90
60039;DHT22;45916;52.734;6.544;2023-04-24T05:36:51;9.60;99.90
60039;DHT22;45916;52.734;6.544;2023-04-24T05:39:17;9.70;99.90
60039;DHT22;45916;52.734;6.544;2023-04-24T05:41:43;9.60;99.90
60039;DHT22;45916;52.734;6.544;2023-04-24T05:44:09;9.60;99.90
60039;DHT22;45916;52.734;6.544;2023-04-24T05:46:35;9.60;99.90
60039;DHT22;45916;52.734;6.544;2023-04-24T05:49:01;9.70;99.90
60039;DHT22;45916;52.734;6.544;2023-04-24T05:51:27;9.70;99.90
60039;DHT22;45916;52.734;6.544;2023-04-24T05:53:53;9.80;99.90
60039;DHT22;45916;52.734;6.544;2023-04-24T05:56:19;10.00;99.90
60039;DHT22;45916;52.734;6.544;2023-04-24T05:58:46;10.10;99.90
60039;DHT22;45916;52.734;6.544;2023-04-24T06:01:12;10.20;99.90
60039;DHT22;45916;52.734;6.544;2023-04-24T06:03:38;10.30;99.90
60039;DHT22;45916;52.734;6.544;2023-04-24T06:06:06;10.40;99.90
60039;DHT22;45916;52.734;6.544;2023-04-24T06:08:31;10.50;99.90
60039;DHT22;45916;52.734;6.544;2023-04-24T06:10:58;10.50;99.90
60039;DHT22;45916;52.734;6.544;2023-04-24T06:13:23;10.60;99.90
60039;DHT22;45916;52.734;6.544;2023-04-24T06:15:50;10.50;99.90
60039;DHT22;45916;52.734;6.544;2023-04-24T06:18:16;10.60;99.90
60039;DHT22;45916;52.734;6.544;2023-04-24T06:20:42;10.60;99.90
60039;DHT22;45916;52.734;6.544;2023-04-24T06:23:08;10.60;99.90
60039;DHT22;45916;52.734;6.544;2023-04-24T06:25:33;10.60;99.90
60039;DHT22;45916;52.734;6.544;2023-04-24T06:27:59;10.60;99.90
60039;DHT22;45916;52.734;6.544;2023-04-24T06:30:25;10.60;99.90
60039;DHT22;45916;52.734;6.544;2023-04-24T06:32:52;10.60;99.90
60039;DHT22;45916;52.734;6.544;2023-04-24T06:35:18;10.60;99.90
60039;DHT22;45916;52.734;6.544;2023-04-24T06:37:44;10.70;99.90
60039;DHT22;45916;52.734;6.544;2023-04-24T06:40:10;10.70;99.90
60039;DHT22;45916;52.734;6.544;2023-04-24T06:42:36;10.70;99.90
60039;DHT22;45916;52.734;6.544;2023-04-24T06:45:02;10.70;99.90
60039;DHT22;45916;52.734;6.544;2023-04-24T06:47:29;10.70;99.90
60039;DHT22;45916;52.734;6.544;2023-04-24T06:49:55;10.80;99.90
60039;DHT22;45916;52.734;6.544;2023-04-24T06:52:20;10.80;99.90
60039;DHT22;45916;52.734;6.544;2023-04-24T06:54:46;10.70;99.90
60039;DHT22;45916;52.734;6.544;2023-04-24T06:57:12;10.70;99.90
60039;DHT22;45916;52.734;6.544;2023-04-24T06:59:38;10.70;99.90
60039;DHT22;45916;52.734;6.544;2023-04-24T07:02:04;10.70;99.90
60039;DHT22;45916;52.734;6.544;2023-04-24T07:04:30;10.70;99.90
60039;DHT22;45916;52.734;6.544;2023-04-24T07:06:56;10.60;99.90
60039;DHT22;45916;52.734;6.544;2023-04-24T07:09:24;10.60;99.90
60039;DHT22;45916;52.734;6.544;2023-04-24T07:11:51;10.70;99.90
60039;DHT22;45916;52.734;6.544;2023-04-24T07:14:17;10.60;99.90
60039;DHT22;45916;52.734;6.544;2023-04-24T07:16:43;10.70;99.90
60039;DHT22;45916;52.734;6.544;2023-04-24T07:19:09;10.70;99.90
60039;DHT22;45916;52.734;6.544;2023-04-24T07:21:35;10.80;99.90
60039;DHT22;45916;52.734;6.544;2023-04-24T07:24:01;10.80;99.90
60039;DHT22;45916;52.734;6.544;2023-04-24T07:26:29;10.80;99.90
60039;DHT22;45916;52.734;6.544;2023-04-24T07:28:55;10.80;99.90
60039;DHT22;45916;52.734;6.544;2023-04-24T07:31:20;10.90;99.90
60039;DHT22;45916;52.734;6.544;2023-04-24T07:33:47;10.90;99.90
60039;DHT22;45916;52.734;6.544;2023-04-24T07:36:13;10.90;99.90
60039;DHT22;45916;52.734;6.544;2023-04-24T07:38:42;11.00;99.90
60039;DHT22;45916;52.734;6.544;2023-04-24T07:41:08;11.00;99.90
60039;DHT22;45916;52.734;6.544;2023-04-24T07:43:35;11.10;99.90
60039;DHT22;45916;52.734;6.544;2023-04-24T07:46:00;11.10;99.90
60039;DHT22;45916;52.734;6.544;2023-04-24T07:48:26;11.10;99.90
60039;DHT22;45916;52.734;6.544;2023-04-24T07:50:53;11.20;99.90
60039;DHT22;45916;52.734;6.544;2023-04-24T07:53:18;11.20;99.90
60039;DHT22;45916;52.734;6.544;2023-04-24T07:55:44;11.20;99.90
60039;DHT22;45916;52.734;6.544;2023-04-24T07:58:10;11.20;99.90
60039;DHT22;45916;52.734;6.544;2023-04-24T08:00:36;11.10;99.90
60039;DHT22;45916;52.734;6.544;2023-04-24T08:03:01;11.10;99.90
60039;DHT22;45916;52.734;6.544;2023-04-24T08:05:27;11.10;99.90
60039;DHT22;45916;52.734;6.544;2023-04-24T08:07:54;11.00;99.90
60039;DHT22;45916;52.734;6.544;2023-04-24T08:10:24;10.90;99.90
60039;DHT22;45916;52.734;6.544;2023-04-24T08:12:50;10.90;99.90
60039;DHT22;45916;52.734;6.544;2023-04-24T08:15:16;10.80;99.90
60039;DHT22;45916;52.734;6.544;2023-04-24T08:17:42;10.80;99.90
60039;DHT22;45916;52.734;6.544;2023-04-24T08:20:11;10.80;99.90
60039;DHT22;45916;52.734;6.544;2023-04-24T08:22:40;10.80;99.90
60039;DHT22;45916;52.734;6.544;2023-04-24T08:25:07;10.80;99.90
60039;DHT22;45916;52.734;6.544;2023-04-24T08:27:33;10.80;99.90
60039;DHT22;45916;52.734;6.544;2023-04-24T08:29:58;10.80;99.90
60039;DHT22;45916;52.734;6.544;2023-04-24T08:32:25;10.80;99.90
60039;DHT22;45916;52.734;6.544;2023-04-24T08:34:58;10.80;99.90
60039;DHT22;45916;52.734;6.544;2023-04-24T08:37:26;10.80;99.90
60039;DHT22;45916;52.734;6.544;2023-04-24T08:39:52;10.80;99.90
60039;DHT22;45916;52.734;6.544;2023-04-24T08:42:19;10.80;99.90
60039;DHT22;45916;52.734;6.544;2023-04-24T08:44:45;10.80;99.90
60039;DHT22;45916;52.734;6.544;2023-04-24T08:47:11;10.80;99.90
60039;DHT22;45916;52.734;6.544;2023-04-24T08:49:38;10.70;99.90
60039;DHT22;45916;52.734;6.544;2023-04-24T08:52:07;10.60;99.90
60039;DHT22;45916;52.734;6.544;2023-04-24T08:54:36;10.60;99.90
60039;DHT22;45916;52.734;6.544;2023-04-24T08:57:03;10.50;99.90
60039;DHT22;45916;52.734;6.544;2023-04-24T08:59:30;10.50;99.90
60039;DHT22;45916;52.734;6.544;2023-04-24T09:01:57;10.40;99.90
60039;DHT22;45916;52.734;6.544;2023-04-24T09:04:24;10.40;99.90
60039;DHT22;45916;52.734;6.544;2023-04-24T09:06:57;10.40;99.90
60039;DHT22;45916;52.734;6.544;2023-04-24T09:09:24;10.30;99.90
60039;DHT22;45916;52.734;6.544;2023-04-24T09:11:51;10.30;99.90
60039;DHT22;45916;52.734;6.544;2023-04-24T09:14:19;10.20;99.90
60039;DHT22;45916;52.734;6.544;2023-04-24T09:16:46;10.20;99.90
60039;DHT22;45916;52.734;6.544;2023-04-24T09:19:12;10.20;99.90
60039;DHT22;45916;52.734;6.544;2023-04-24T09:21:38;10.20;99.90
60039;DHT22;45916;52.734;6.544;2023-04-24T09:24:07;10.30;99.90
60039;DHT22;45916;52.734;6.544;2023-04-24T09:26:35;10.40;99.90
60039;DHT22;45916;52.734;6.544;2023-04-24T09:29:02;10.40;99.90
60039;DHT22;45916;52.734;6.544;2023-04-24T09:31:29;10.50;99.90
60039;DHT22;45916;52.734;6.544;2023-04-24T09:33:55;10.50;99.90
60039;DHT22;45916;52.734;6.544;2023-04-24T09:36:29;10.50;99.90
60039;DHT22;45916;52.734;6.544;2023-04-24T09:38:59;10.50;99.90
60039;DHT22;45916;52.734;6.544;2023-04-24T09:41:25;10.50;99.90
60039;DHT22;45916;52.734;6.544;2023-04-24T09:43:54;10.50;99.90
60039;DHT22;45916;52.734;6.544;2023-04-24T09:46:20;10.40;99.90
60039;DHT22;45916;52.734;6.544;2023-04-24T09:48:47;10.40;99.90
60039;DHT22;45916;52.734;6.544;2023-04-24T09:51:13;10.30;99.90
60039;DHT22;45916;52.734;6.544;2023-04-24T09:53:45;10.40;99.90
60039;DHT22;45916;52.734;6.544;2023-04-24T09:56:11;10.30;99.90
60039;DHT22;45916;52.734;6.544;2023-04-24T09:58:38;10.30;99.90
60039;DHT22;45916;52.734;6.544;2023-04-24T10:01:05;10.40;99.90
60039;DHT22;45916;52.734;6.544;2023-04-24T10:03:32;10.40;99.90
60039;DHT22;45916;52.734;6.544;2023-04-24T10:06:02;10.50;99.90
60039;DHT22;45916;52.734;6.544;2023-04-24T10:08:34;10.70;99.90
60039;DHT22;45916;52.734;6.544;2023-04-24T10:11:00;10.90;99.90
60039;DHT22;45916;52.734;6.544;2023-04-24T10:13:28;11.10;99.90
60039;DHT22;45916;52.734;6.544;2023-04-24T10:15:54;11.20;99.90
60039;DHT22;45916;52.734;6.544;2023-04-24T10:18:21;11.30;99.90
60039;DHT22;45916;52.734;6.544;2023-04-24T10:20:48;11.40;99.90
60039;DHT22;45916;52.734;6.544;2023-04-24T10:23:14;11.30;99.90
60039;DHT22;45916;52.734;6.544;2023-04-24T10:25:40;11.10;99.90
60039;DHT22;45916;52.734;6.544;2023-04-24T10:28:06;11.00;99.90
60039;DHT22;45916;52.734;6.544;2023-04-24T10:30:33;10.80;99.90
60039;DHT22;45916;52.734;6.544;2023-04-24T10:33:04;10.60;99.90
60039;DHT22;45916;52.734;6.544;2023-04-24T10:35:31;10.50;99.90
60039;DHT22;45916;52.734;6.544;2023-04-24T10:38:01;10.20;99.90
60039;DHT22;45916;52.734;6.544;2023-04-24T10:40:34;10.10;99.90
60039;DHT22;45916;52.734;6.544;2023-04-24T10:43:02;10.10;99.90
60039;DHT22;45916;52.734;6.544;2023-04-24T10:45:28;10.00;99.90
60039;DHT22;45916;52.734;6.544;2023-04-24T10:47:59;10.00;99.90
60039;DHT22;45916;52.734;6.544;2023-04-24T10:50:52;10.00;99.90
60039;DHT22;45916;52.734;6.544;2023-04-24T10:53:21;10.10;99.90
60039;DHT22;45916;52.734;6.544;2023-04-24T10:55:52;10.20;99.90
60039;DHT22;45916;52.734;6.544;2023-04-24T10:58:23;10.30;99.90
60039;DHT22;45916;52.734;6.544;2023-04-24T11:00:59;10.40;99.90
60039;DHT22;45916;52.734;6.544;2023-04-24T11:08:47;10.50;99.90
60039;DHT22;45916;52.734;6.544;2023-04-24T11:11:16;10.50;99.90
60039;DHT22;45916;52.734;6.544;2023-04-24T11:16:42;10.80;99.90
60039;DHT22;45916;52.734;6.544;2023-04-24T11:19:17;11.00;99.90
60039;DHT22;45916;52.734;6.544;2023-04-24T11:21:45;11.30;99.90
60039;DHT22;45916;52.734;6.544;2023-04-24T11:24:31;11.40;99.90
60039;DHT22;45916;52.734;6.544;2023-04-24T11:29:51;11.40;99.90
60039;DHT22;45916;52.734;6.544;2023-04-24T11:35:06;11.20;99.90
60039;DHT22;45916;52.734;6.544;2023-04-24T11:37:37;11.10;99.90
60039;DHT22;45916;52.734;6.544;2023-04-24T11:40:04;11.00;99.90
60039;DHT22;45916;52.734;6.544;2023-04-24T11:42:38;10.90;99.90
60039;DHT22;45916;52.734;6.544;2023-04-24T11:45:21;10.90;99.90
60039;DHT22;45916;52.734;6.544;2023-04-24T11:47:47;10.80;99.90
60039;DHT22;45916;52.734;6.544;2023-04-24T11:50:15;10.80;99.90
60039;DHT22;45916;52.734;6.544;2023-04-24T11:52:45;10.90;99.90
60039;DHT22;45916;52.734;6.544;2023-04-24T11:57:43;11.30;99.90
60039;DHT22;45916;52.734;6.544;2023-04-24T12:00:28;11.50;99.90
60039;DHT22;45916;52.734;6.544;2023-04-24T12:05:31;11.60;99.90
60039;DHT22;45916;52.734;6.544;2023-04-24T12:07:57;11.60;99.90
60039;DHT22;45916;52.734;6.544;2023-04-24T12:10:24;11.40;99.90
60039;DHT22;45916;52.734;6.544;2023-04-24T12:12:51;11.30;99.90
60039;DHT22;45916;52.734;6.544;2023-04-24T12:15:19;11.20;99.90
60039;DHT22;45916;52.734;6.544;2023-04-24T12:17:45;11.20;99.90
60039;DHT22;45916;52.734;6.544;2023-04-24T12:20:12;11.20;99.90
60039;DHT22;45916;52.734;6.544;2023-04-24T12:22:49;11.20;99.90
60039;DHT22;45916;52.734;6.544;2023-04-24T12:25:19;11.20;99.90
60039;DHT22;45916;52.734;6.544;2023-04-24T12:27:46;11.10;99.90
60039;DHT22;45916;52.734;6.544;2023-04-24T12:30:16;11.10;99.90
60039;DHT22;45916;52.734;6.544;2023-04-24T12:32:47;11.30;99.90
60039;DHT22;45916;52.734;6.544;2023-04-24T12:35:19;11.30;99.90
60039;DHT22;45916;52.734;6.544;2023-04-24T12:37:45;11.40;99.90
60039;DHT22;45916;52.734;6.544;2023-04-24T12:40:11;11.30;99.90
60039;DHT22;45916;52.734;6.544;2023-04-24T12:42:50;11.20;99.90
60039;DHT22;45916;52.734;6.544;2023-04-24T12:45:17;10.90;99.90
60039;DHT22;45916;52.734;6.544;2023-04-24T12:47:45;10.90;99.90
60039;DHT22;45916;52.734;6.544;2023-04-24T12:50:12;11.00;99.90
60039;DHT22;45916;52.734;6.544;2023-04-24T12:52:39;11.10;99.90
60039;DHT22;45916;52.734;6.544;2023-04-24T12:55:05;11.20;99.90
60039;DHT22;45916;52.734;6.544;2023-04-24T12:57:33;11.30;99.90
60039;DHT22;45916;52.734;6.544;2023-04-24T13:00:00;11.40;99.90
60039;DHT22;45916;52.734;6.544;2023-04-24T13:02:29;11.40;99.90
60039;DHT22;45916;52.734;6.544;2023-04-24T13:04:57;11.40;99.90
60039;DHT22;45916;52.734;6.544;2023-04-24T13:07:23;11.50;99.90
60039;DHT22;45916;52.734;6.544;2023-04-24T13:09:50;11.50;99.90
60039;DHT22;45916;52.734;6.544;2023-04-24T13:12:16;11.50;99.90
60039;DHT22;45916;52.734;6.544;2023-04-24T13:14:42;11.40;99.90
60039;DHT22;45916;52.734;6.544;2023-04-24T13:17:07;11.20;99.90
60039;DHT22;45916;52.734;6.544;2023-04-24T13:19:38;11.10;99.90
60039;DHT22;45916;52.734;6.544;2023-04-24T13:22:04;11.00;99.90
60039;DHT22;45916;52.734;6.544;2023-04-24T13:24:31;10.80;99.90
60039;DHT22;45916;52.734;6.544;2023-04-24T13:26:57;10.60;99.90
60039;DHT22;45916;52.734;6.544;2023-04-24T13:29:23;10.50;99.90
60039;DHT22;45916;52.734;6.544;2023-04-24T13:31:53;10.50;99.90
60039;DHT22;45916;52.734;6.544;2023-04-24T13:34:25;10.60;99.90
60039;DHT22;45916;52.734;6.544;2023-04-24T13:36:53;10.50;99.90
60039;DHT22;45916;52.734;6.544;2023-04-24T13:39:19;10.50;99.90
60039;DHT22;45916;52.734;6.544;2023-04-24T13:41:45;10.40;99.90
60039;DHT22;45916;52.734;6.544;2023-04-24T13:44:12;10.30;99.90
60039;DHT22;45916;52.734;6.544;2023-04-24T13:46:38;10.40;99.90
60039;DHT22;45916;52.734;6.544;2023-04-24T13:49:03;10.50;99.90
60039;DHT22;45916;52.734;6.544;2023-04-24T13:51:29;10.60;99.90
60039;DHT22;45916;52.734;6.544;2023-04-24T13:53:55;10.80;99.90
60039;DHT22;45916;52.734;6.544;2023-04-24T13:56:22;10.80;99.90
60039;DHT22;45916;52.734;6.544;2023-04-24T13:58:48;10.80;99.90
60039;DHT22;45916;52.734;6.544;2023-04-24T14:01:14;10.70;99.90
60039;DHT22;45916;52.734;6.544;2023-04-24T14:03:41;10.60;99.90
60039;DHT22;45916;52.734;6.544;2023-04-24T14:06:07;10.50;99.90
60039;DHT22;45916;52.734;6.544;2023-04-24T14:08:32;10.50;99.90
60039;DHT22;45916;52.734;6.544;2023-04-24T14:10:58;10.30;99.90
60039;DHT22;45916;52.734;6.544;2023-04-24T14:13:24;10.20;99.90
60039;DHT22;45916;52.734;6.544;2023-04-24T14:15:50;10.00;99.90
60039;DHT22;45916;52.734;6.544;2023-04-24T14:18:16;9.90;99.90
60039;DHT22;45916;52.734;6.544;2023-04-24T14:20:42;9.90;99.90
60039;DHT22;45916;52.734;6.544;2023-04-24T14:23:08;9.80;99.90
60039;DHT22;45916;52.734;6.544;2023-04-24T14:25:34;9.90;99.90
60039;DHT22;45916;52.734;6.544;2023-04-24T14:27:59;9.90;99.90
60039;DHT22;45916;52.734;6.544;2023-04-24T14:30:25;10.10;99.90
60039;DHT22;45916;52.734;6.544;2023-04-24T14:32:51;10.20;99.90
60039;DHT22;45916;52.734;6.544;2023-04-24T14:35:16;10.20;99.90
60039;DHT22;45916;52.734;6.544;2023-04-24T14:37:42;10.20;99.90
60039;DHT22;45916;52.734;6.544;2023-04-24T14:40:08;10.20;99.90
60039;DHT22;45916;52.734;6.544;2023-04-24T14:42:34;10.20;99.90
60039;DHT22;45916;52.734;6.544;2023-04-24T14:45:01;10.20;99.90
60039;DHT22;45916;52.734;6.544;2023-04-24T14:47:26;10.40;99.90
60039;DHT22;45916;52.734;6.544;2023-04-24T14:49:52;10.60;99.90
60039;DHT22;45916;52.734;6.544;2023-04-24T14:52:18;10.80;99.90
60039;DHT22;45916;52.734;6.544;2023-04-24T14:54:45;10.80;99.90
60039;DHT22;45916;52.734;6.544;2023-04-24T14:57:10;10.90;99.90
60039;DHT22;45916;52.734;6.544;2023-04-24T14:59:36;10.90;99.90
60039;DHT22;45916;52.734;6.544;2023-04-24T15:02:02;10.80;99.90
60039;DHT22;45916;52.734;6.544;2023-04-24T15:04:28;10.70;99.90
60039;DHT22;45916;52.734;6.544;2023-04-24T15:06:55;10.50;99.90
60039;DHT22;45916;52.734;6.544;2023-04-24T15:09:24;10.50;99.90
60039;DHT22;45916;52.734;6.544;2023-04-24T15:11:51;10.50;99.90
60039;DHT22;45916;52.734;6.544;2023-04-24T15:14:17;10.50;99.90
60039;DHT22;45916;52.734;6.544;2023-04-24T15:16:43;10.40;99.90
60039;DHT22;45916;52.734;6.544;2023-04-24T15:19:09;10.40;99.90
60039;DHT22;45916;52.734;6.544;2023-04-24T15:21:36;10.50;99.90
60039;DHT22;45916;52.734;6.544;2023-04-24T15:24:03;10.50;99.90
60039;DHT22;45916;52.734;6.544;2023-04-24T15:26:29;10.50;99.90
60039;DHT22;45916;52.734;6.544;2023-04-24T15:28:55;10.50;99.90
60039;DHT22;45916;52.734;6.544;2023-04-24T15:31:20;10.50;99.90
60039;DHT22;45916;52.734;6.544;2023-04-24T15:33:48;10.50;99.90
60039;DHT22;45916;52.734;6.544;2023-04-24T15:36:15;10.50;99.90
60039;DHT22;45916;52.734;6.544;2023-04-24T15:38:43;10.60;99.90
60039;DHT22;45916;52.734;6.544;2023-04-24T15:41:08;10.70;99.90
60039;DHT22;45916;52.734;6.544;2023-04-24T15:43:34;10.70;99.90
60039;DHT22;45916;52.734;6.544;2023-04-24T15:46:01;10.70;99.90
60039;DHT22;45916;52.734;6.544;2023-04-24T15:48:30;10.80;99.90
60039;DHT22;45916;52.734;6.544;2023-04-24T15:50:56;10.80;99.90